sensor_id;sensor_type;location;lat;lon;timestamp;pressure;altitude;pressure_sealevel;temperature;humidity
11971;BME280;6045;42.682;23.294;2023-08-30T00:01:36;93747.25;;;25.89;60.77
11971;BME280;6045;42.682;23.294;2023-08-30T00:04:03;93743.16;;;25.95;61.51
11971;BME280;6045;42.682;23.294;2023-08-30T00:06:30;93738.00;;;25.94;61.14
11971;BME280;6045;42.682;23.294;2023-08-30T00:08:57;93730.00;;;26.01;60.88
11971;BME280;6045;42.682;23.294;2023-08-30T00:11:25;93737.97;;;26.06;60.46
11971;BME280;6045;42.682;23.294;2023-08-30T00:13:52;93744.28;;;25.94;60.30
11971;BME280;6045;42.682;23.294;2023-08-30T00:16:19;93757.75;;;25.87;60.31
11971;BME280;6045;42.682;23.294;2023-08-30T00:18:46;93756.53;;;25.72;60.29
11971;BME280;6045;42.682;23.294;2023-08-30T00:21:13;93750.84;;;25.65;59.74
11971;BME280;6045;42.682;23.294;2023-08-30T00:23:40;93755.63;;;25.68;59.20
11971;BME280;6045;42.682;23.294;2023-08-30T00:26:07;93751.06;;;25.72;59.09
11971;BME280;6045;42.682;23.294;2023-08-30T00:28:35;93743.41;;;25.78;58.87
11971;BME280;6045;42.682;23.294;2023-08-30T00:31:02;93737.25;;;25.81;58.39
11971;BME280;6045;42.682;23.294;2023-08-30T00:33:29;93735.75;;;25.84;58.09
11971;BME280;6045;42.682;23.294;2023-08-30T00:35:56;93748.53;;;25.79;57.85
11971;BME280;6045;42.682;23.294;2023-08-30T00:38:23;93743.06;;;25.79;58.18
11971;BME280;6045;42.682;23.294;2023-08-30T00:40:50;93738.75;;;25.78;58.04
11971;BME280;6045;42.682;23.294;2023-08-30T00:43:17;93732.09;;;25.79;56.39
11971;BME280;6045;42.682;23.294;2023-08-30T00:45:46;93736.34;;;25.65;57.39
11971;BME280;6045;42.682;23.294;2023-08-30T00:48:13;93739.78;;;25.26;55.56
11971;BME280;6045;42.682;23.294;2023-08-30T00:50:41;93738.28;;;24.92;57.43
11971;BME280;6045;42.682;23.294;2023-08-30T00:53:10;93745.75;;;24.59;58.49
11971;BME280;6045;42.682;23.294;2023-08-30T00:55:37;93751.22;;;24.05;58.95
11971;BME280;6045;42.682;23.294;2023-08-30T00:58:05;93766.22;;;23.99;60.93
11971;BME280;6045;42.682;23.294;2023-08-30T01:00:32;93764.97;;;24.17;60.79
11971;BME280;6045;42.682;23.294;2023-08-30T01:03:01;93759.19;;;24.19;60.69
11971;BME280;6045;42.682;23.294;2023-08-30T01:05:28;93754.50;;;24.19;60.25
11971;BME280;6045;42.682;23.294;2023-08-30T01:07:54;93752.91;;;24.18;59.59
11971;BME280;6045;42.682;23.294;2023-08-30T01:10:27;93761.66;;;24.12;59.83
11971;BME280;6045;42.682;23.294;2023-08-30T01:13:02;93761.06;;;23.98;60.00
11971;BME280;6045;42.682;23.294;2023-08-30T01:15:32;93771.28;;;23.89;60.11
11971;BME280;6045;42.682;23.294;2023-08-30T01:18:04;93780.41;;;23.93;61.01
11971;BME280;6045;42.682;23.294;2023-08-30T01:20:34;93772.72;;;23.86;59.21
11971;BME280;6045;42.682;23.294;2023-08-30T01:23:05;93774.34;;;23.87;58.70
11971;BME280;6045;42.682;23.294;2023-08-30T01:25:43;93777.13;;;23.99;60.21
11971;BME280;6045;42.682;23.294;2023-08-30T01:28:15;93785.44;;;24.11;59.74
11971;BME280;6045;42.682;23.294;2023-08-30T01:30:43;93762.88;;;24.35;60.08
11971;BME280;6045;42.682;23.294;2023-08-30T01:33:12;93765.09;;;24.54;58.81
11971;BME280;6045;42.682;23.294;2023-08-30T01:35:40;93765.38;;;24.73;58.41
11971;BME280;6045;42.682;23.294;2023-08-30T01:38:07;93755.41;;;24.89;57.84
11971;BME280;6045;42.682;23.294;2023-08-30T01:40:36;93754.16;;;24.98;57.47
11971;BME280;6045;42.682;23.294;2023-08-30T01:43:05;93762.84;;;25.12;57.46
11971;BME280;6045;42.682;23.294;2023-08-30T01:45:35;93771.84;;;25.13;56.77
11971;BME280;6045;42.682;23.294;2023-08-30T01:48:04;93770.25;;;25.12;57.63
11971;BME280;6045;42.682;23.294;2023-08-30T01:50:33;93772.19;;;25.24;57.51
11971;BME280;6045;42.682;23.294;2023-08-30T01:53:01;93759.41;;;25.40;57.12
11971;BME280;6045;42.682;23.294;2023-08-30T01:55:29;93766.75;;;25.48;56.51
11971;BME280;6045;42.682;23.294;2023-08-30T01:57:57;93760.22;;;25.52;56.21
11971;BME280;6045;42.682;23.294;2023-08-30T02:00:23;93766.84;;;25.51;55.65
11971;BME280;6045;42.682;23.294;2023-08-30T02:02:51;93768.00;;;25.50;55.97
11971;BME280;6045;42.682;23.294;2023-08-30T02:05:18;93757.38;;;25.49;55.91
11971;BME280;6045;42.682;23.294;2023-08-30T02:07:50;93759.78;;;25.50;56.00
11971;BME280;6045;42.682;23.294;2023-08-30T02:10:23;93760.00;;;25.57;55.99
11971;BME280;6045;42.682;23.294;2023-08-30T02:12:53;93765.25;;;25.62;55.29
11971;BME280;6045;42.682;23.294;2023-08-30T02:15:21;93762.28;;;25.55;55.81
11971;BME280;6045;42.682;23.294;2023-08-30T02:17:52;93760.44;;;25.59;56.31
11971;BME280;6045;42.682;23.294;2023-08-30T02:20:20;93756.44;;;25.69;55.96
11971;BME280;6045;42.682;23.294;2023-08-30T02:22:47;93762.94;;;25.76;55.98
11971;BME280;6045;42.682;23.294;2023-08-30T02:25:13;93756.53;;;25.72;55.53
11971;BME280;6045;42.682;23.294;2023-08-30T02:27:40;93750.59;;;25.70;55.69
11971;BME280;6045;42.682;23.294;2023-08-30T02:30:07;93753.34;;;25.70;55.46
11971;BME280;6045;42.682;23.294;2023-08-30T02:32:34;93757.91;;;25.78;55.65
11971;BME280;6045;42.682;23.294;2023-08-30T02:35:03;93754.72;;;25.76;55.41
11971;BME280;6045;42.682;23.294;2023-08-30T02:37:30;93757.47;;;25.76;55.26
11971;BME280;6045;42.682;23.294;2023-08-30T02:39:57;93754.50;;;25.69;55.27
11971;BME280;6045;42.682;23.294;2023-08-30T02:42:23;93753.94;;;25.64;55.32
11971;BME280;6045;42.682;23.294;2023-08-30T02:44:51;93755.09;;;25.39;55.95
11971;BME280;6045;42.682;23.294;2023-08-30T02:47:18;93741.19;;;25.20;56.25
11971;BME280;6045;42.682;23.294;2023-08-30T02:49:45;93744.47;;;25.25;56.05
11971;BME280;6045;42.682;23.294;2023-08-30T02:52:13;93755.19;;;25.18;56.56
11971;BME280;6045;42.682;23.294;2023-08-30T02:54:40;93743.34;;;25.26;56.29
11971;BME280;6045;42.682;23.294;2023-08-30T02:57:07;93741.06;;;25.28;56.39
11971;BME280;6045;42.682;23.294;2023-08-30T02:59:34;93732.25;;;25.23;56.20
11971;BME280;6045;42.682;23.294;2023-08-30T03:02:01;93731.59;;;25.26;56.08
11971;BME280;6045;42.682;23.294;2023-08-30T03:04:28;93736.03;;;25.30;56.25
11971;BME280;6045;42.682;23.294;2023-08-30T03:06:54;93744.47;;;25.25;56.26
11971;BME280;6045;42.682;23.294;2023-08-30T03:09:23;93739.13;;;25.17;56.38
11971;BME280;6045;42.682;23.294;2023-08-30T03:11:49;93746.28;;;25.09;56.58
11971;BME280;6045;42.682;23.294;2023-08-30T03:14:16;93741.28;;;25.11;56.72
11971;BME280;6045;42.682;23.294;2023-08-30T03:16:43;93746.97;;;25.18;56.51
11971;BME280;6045;42.682;23.294;2023-08-30T03:19:12;93757.00;;;25.14;56.46
11971;BME280;6045;42.682;23.294;2023-08-30T03:21:38;93750.19;;;25.08;56.62
11971;BME280;6045;42.682;23.294;2023-08-30T03:24:05;93741.28;;;24.99;56.79
11971;BME280;6045;42.682;23.294;2023-08-30T03:26:33;93730.44;;;24.90;56.75
11971;BME280;6045;42.682;23.294;2023-08-30T03:29:00;93732.50;;;24.81;56.99
11971;BME280;6045;42.682;23.294;2023-08-30T03:31:27;93736.25;;;24.77;56.86
11971;BME280;6045;42.682;23.294;2023-08-30T03:33:54;93730.50;;;24.70;57.38
11971;BME280;6045;42.682;23.294;2023-08-30T03:36:23;93733.91;;;24.67;57.68
11971;BME280;6045;42.682;23.294;2023-08-30T03:38:50;93723.22;;;24.74;57.18
11971;BME280;6045;42.682;23.294;2023-08-30T03:41:17;93729.84;;;24.73;57.12
11971;BME280;6045;42.682;23.294;2023-08-30T03:43:45;93720.16;;;24.75;57.25
11971;BME280;6045;42.682;23.294;2023-08-30T03:46:12;93718.94;;;24.85;57.09
11971;BME280;6045;42.682;23.294;2023-08-30T03:48:39;93719.63;;;24.82;56.78
11971;BME280;6045;42.682;23.294;2023-08-30T03:51:06;93726.31;;;24.72;57.45
11971;BME280;6045;42.682;23.294;2023-08-30T03:53:32;93735.84;;;24.66;57.85
11971;BME280;6045;42.682;23.294;2023-08-30T03:55:59;93742.34;;;24.74;57.60
11971;BME280;6045;42.682;23.294;2023-08-30T03:58:27;93745.28;;;24.89;57.21
11971;BME280;6045;42.682;23.294;2023-08-30T04:00:56;93752.09;;;24.95;57.08
11971;BME280;6045;42.682;23.294;2023-08-30T04:03:23;93748.00;;;25.01;56.91
11971;BME280;6045;42.682;23.294;2023-08-30T04:05:54;93755.19;;;25.18;56.45
11971;BME280;6045;42.682;23.294;2023-08-30T04:08:21;93761.13;;;25.20;56.50
11971;BME280;6045;42.682;23.294;2023-08-30T04:10:52;93748.00;;;25.26;55.97
11971;BME280;6045;42.682;23.294;2023-08-30T04:13:19;93748.81;;;25.26;55.18
11971;BME280;6045;42.682;23.294;2023-08-30T04:15:46;93760.91;;;25.61;54.72
11971;BME280;6045;42.682;23.294;2023-08-30T04:18:14;93767.03;;;25.83;55.07
11971;BME280;6045;42.682;23.294;2023-08-30T04:20:43;93765.47;;;26.09;54.72
11971;BME280;6045;42.682;23.294;2023-08-30T04:23:11;93763.91;;;26.36;52.33
11971;BME280;6045;42.682;23.294;2023-08-30T04:25:38;93769.28;;;26.60;52.84
11971;BME280;6045;42.682;23.294;2023-08-30T04:28:05;93782.50;;;26.70;50.82
11971;BME280;6045;42.682;23.294;2023-08-30T04:30:32;93797.63;;;26.52;48.88
11971;BME280;6045;42.682;23.294;2023-08-30T04:32:59;93800.28;;;26.48;52.08
11971;BME280;6045;42.682;23.294;2023-08-30T04:35:29;93818.78;;;26.52;51.11
11971;BME280;6045;42.682;23.294;2023-08-30T04:37:57;93821.69;;;26.31;51.06
11971;BME280;6045;42.682;23.294;2023-08-30T04:40:24;93826.75;;;26.17;51.69
11971;BME280;6045;42.682;23.294;2023-08-30T04:42:51;93832.81;;;26.22;51.33
11971;BME280;6045;42.682;23.294;2023-08-30T04:45:17;93822.44;;;26.16;49.43
11971;BME280;6045;42.682;23.294;2023-08-30T04:47:44;93821.03;;;26.22;52.16
11971;BME280;6045;42.682;23.294;2023-08-30T04:50:11;93826.63;;;26.37;50.28
11971;BME280;6045;42.682;23.294;2023-08-30T04:52:39;93828.84;;;26.47;51.09
11971;BME280;6045;42.682;23.294;2023-08-30T04:55:08;93818.56;;;26.57;50.51
11971;BME280;6045;42.682;23.294;2023-08-30T04:57:35;93814.59;;;26.70;51.35
11971;BME280;6045;42.682;23.294;2023-08-30T05:00:03;93811.91;;;26.30;50.08
11971;BME280;6045;42.682;23.294;2023-08-30T05:02:31;93811.63;;;25.83;51.66
11971;BME280;6045;42.682;23.294;2023-08-30T05:04:58;93815.41;;;25.78;52.61
11971;BME280;6045;42.682;23.294;2023-08-30T05:07:24;93810.16;;;25.86;51.38
11971;BME280;6045;42.682;23.294;2023-08-30T05:09:53;93821.66;;;25.91;51.73
11971;BME280;6045;42.682;23.294;2023-08-30T05:12:19;93817.19;;;26.11;51.63
11971;BME280;6045;42.682;23.294;2023-08-30T05:14:46;93813.28;;;26.24;52.24
11971;BME280;6045;42.682;23.294;2023-08-30T05:17:13;93804.31;;;25.99;50.42
11971;BME280;6045;42.682;23.294;2023-08-30T05:19:40;93818.16;;;25.66;50.47
11971;BME280;6045;42.682;23.294;2023-08-30T05:22:06;93813.81;;;25.53;50.90
11971;BME280;6045;42.682;23.294;2023-08-30T05:24:33;93819.28;;;25.29;51.77
11971;BME280;6045;42.682;23.294;2023-08-30T05:27:01;93810.38;;;25.20;50.37
11971;BME280;6045;42.682;23.294;2023-08-30T05:29:28;93817.31;;;25.05;51.17
11971;BME280;6045;42.682;23.294;2023-08-30T05:31:55;93825.69;;;24.56;54.18
11971;BME280;6045;42.682;23.294;2023-08-30T05:34:22;93826.28;;;24.73;53.31
11971;BME280;6045;42.682;23.294;2023-08-30T05:36:51;93833.00;;;24.96;53.90
11971;BME280;6045;42.682;23.294;2023-08-30T05:39:18;93826.09;;;25.23;53.55
11971;BME280;6045;42.682;23.294;2023-08-30T05:41:44;93825.69;;;25.69;51.96
11971;BME280;6045;42.682;23.294;2023-08-30T05:44:13;93816.06;;;26.12;51.30
11971;BME280;6045;42.682;23.294;2023-08-30T05:46:39;93824.97;;;26.48;49.92
11971;BME280;6045;42.682;23.294;2023-08-30T05:49:06;93821.31;;;26.84;46.42
11971;BME280;6045;42.682;23.294;2023-08-30T05:51:33;93819.63;;;27.11;46.51
11971;BME280;6045;42.682;23.294;2023-08-30T05:54:00;93819.16;;;27.37;47.34
11971;BME280;6045;42.682;23.294;2023-08-30T05:56:27;93808.56;;;27.51;46.18
11971;BME280;6045;42.682;23.294;2023-08-30T05:58:54;93816.16;;;27.42;45.74
11971;BME280;6045;42.682;23.294;2023-08-30T06:01:22;93823.53;;;27.53;44.24
11971;BME280;6045;42.682;23.294;2023-08-30T06:03:50;93826.25;;;27.69;45.33
11971;BME280;6045;42.682;23.294;2023-08-30T06:06:17;93819.38;;;27.94;45.24
11971;BME280;6045;42.682;23.294;2023-08-30T06:08:44;93826.81;;;28.09;45.27
11971;BME280;6045;42.682;23.294;2023-08-30T06:11:11;93816.03;;;28.20;42.68
11971;BME280;6045;42.682;23.294;2023-08-30T06:13:38;93819.47;;;28.32;43.63
11971;BME280;6045;42.682;23.294;2023-08-30T06:16:05;93816.78;;;28.17;43.13
11971;BME280;6045;42.682;23.294;2023-08-30T06:18:33;93816.56;;;27.91;45.03
11971;BME280;6045;42.682;23.294;2023-08-30T06:20:59;93824.78;;;28.06;43.82
11971;BME280;6045;42.682;23.294;2023-08-30T06:23:26;93823.88;;;28.37;43.43
11971;BME280;6045;42.682;23.294;2023-08-30T06:25:54;93823.84;;;28.91;42.40
11971;BME280;6045;42.682;23.294;2023-08-30T06:28:20;93823.66;;;29.22;41.39
11971;BME280;6045;42.682;23.294;2023-08-30T06:30:47;93824.31;;;29.35;40.41
11971;BME280;6045;42.682;23.294;2023-08-30T06:33:14;93822.69;;;29.56;40.21
11971;BME280;6045;42.682;23.294;2023-08-30T06:35:42;93830.22;;;29.59;40.52
11971;BME280;6045;42.682;23.294;2023-08-30T06:38:09;93827.94;;;29.42;41.20
11971;BME280;6045;42.682;23.294;2023-08-30T06:40:36;93825.09;;;29.16;41.31
11971;BME280;6045;42.682;23.294;2023-08-30T06:43:03;93833.03;;;28.79;42.23
11971;BME280;6045;42.682;23.294;2023-08-30T06:45:30;93833.94;;;28.48;42.93
11971;BME280;6045;42.682;23.294;2023-08-30T06:47:57;93834.78;;;28.33;41.91
11971;BME280;6045;42.682;23.294;2023-08-30T06:50:23;93834.47;;;28.19;43.93
11971;BME280;6045;42.682;23.294;2023-08-30T06:52:52;93832.19;;;28.21;44.30
11971;BME280;6045;42.682;23.294;2023-08-30T06:55:18;93834.72;;;28.30;43.91
11971;BME280;6045;42.682;23.294;2023-08-30T06:57:48;93837.59;;;28.72;42.35
11971;BME280;6045;42.682;23.294;2023-08-30T07:00:16;93835.00;;;28.79;42.52
11971;BME280;6045;42.682;23.294;2023-08-30T07:02:43;93833.69;;;28.92;40.97
11971;BME280;6045;42.682;23.294;2023-08-30T07:05:11;93837.31;;;28.77;42.32
11971;BME280;6045;42.682;23.294;2023-08-30T07:07:38;93842.53;;;28.63;42.27
11971;BME280;6045;42.682;23.294;2023-08-30T07:10:07;93829.34;;;28.72;42.93
11971;BME280;6045;42.682;23.294;2023-08-30T07:12:34;93824.47;;;29.03;43.14
11971;BME280;6045;42.682;23.294;2023-08-30T07:15:01;93819.81;;;29.49;40.68
11971;BME280;6045;42.682;23.294;2023-08-30T07:17:29;93814.06;;;30.07;39.74
11971;BME280;6045;42.682;23.294;2023-08-30T07:19:56;93825.94;;;30.37;39.39
11971;BME280;6045;42.682;23.294;2023-08-30T07:22:22;93827.16;;;30.69;38.46
11971;BME280;6045;42.682;23.294;2023-08-30T07:24:49;93825.59;;;31.01;38.95
11971;BME280;6045;42.682;23.294;2023-08-30T07:27:17;93834.78;;;31.13;37.82
11971;BME280;6045;42.682;23.294;2023-08-30T07:30:02;93837.75;;;31.30;36.65
11971;BME280;6045;42.682;23.294;2023-08-30T07:32:29;93831.88;;;31.72;36.61
11971;BME280;6045;42.682;23.294;2023-08-30T07:34:56;93833.09;;;31.78;36.95
11971;BME280;6045;42.682;23.294;2023-08-30T07:37:23;93843.91;;;31.94;35.79
11971;BME280;6045;42.682;23.294;2023-08-30T07:39:51;93836.94;;;32.10;35.03
11971;BME280;6045;42.682;23.294;2023-08-30T07:42:19;93838.09;;;31.62;35.80
11971;BME280;6045;42.682;23.294;2023-08-30T07:44:46;93834.56;;;30.91;36.40
11971;BME280;6045;42.682;23.294;2023-08-30T07:47:13;93824.59;;;30.54;36.83
11971;BME280;6045;42.682;23.294;2023-08-30T07:49:40;93819.28;;;30.12;37.15
11971;BME280;6045;42.682;23.294;2023-08-30T07:52:07;93816.72;;;30.26;38.53
11971;BME280;6045;42.682;23.294;2023-08-30T07:54:37;93825.81;;;30.56;39.25
11971;BME280;6045;42.682;23.294;2023-08-30T07:57:05;93823.72;;;31.09;37.33
11971;BME280;6045;42.682;23.294;2023-08-30T07:59:35;93830.97;;;31.24;37.36
11971;BME280;6045;42.682;23.294;2023-08-30T08:02:02;93835.53;;;31.06;37.13
11971;BME280;6045;42.682;23.294;2023-08-30T08:04:31;93838.63;;;31.04;37.47
11971;BME280;6045;42.682;23.294;2023-08-30T08:06:58;93837.00;;;31.00;38.27
11971;BME280;6045;42.682;23.294;2023-08-30T08:09:25;93831.78;;;31.25;37.55
11971;BME280;6045;42.682;23.294;2023-08-30T08:11:53;93831.03;;;32.15;36.07
11971;BME280;6045;42.682;23.294;2023-08-30T08:14:21;93834.16;;;32.72;33.00
11971;BME280;6045;42.682;23.294;2023-08-30T08:16:49;93833.22;;;33.29;32.32
11971;BME280;6045;42.682;23.294;2023-08-30T08:19:16;93833.69;;;33.59;32.25
11971;BME280;6045;42.682;23.294;2023-08-30T08:21:43;93835.72;;;34.12;30.66
11971;BME280;6045;42.682;23.294;2023-08-30T08:24:09;93838.84;;;33.71;31.61
11971;BME280;6045;42.682;23.294;2023-08-30T08:26:36;93844.38;;;33.57;32.29
11971;BME280;6045;42.682;23.294;2023-08-30T08:29:03;93838.88;;;33.68;32.65
11971;BME280;6045;42.682;23.294;2023-08-30T08:31:30;93846.22;;;33.15;29.66
11971;BME280;6045;42.682;23.294;2023-08-30T08:34:09;93842.94;;;32.88;30.91
11971;BME280;6045;42.682;23.294;2023-08-30T08:36:36;93849.16;;;32.67;32.29
11971;BME280;6045;42.682;23.294;2023-08-30T08:39:03;93842.53;;;32.82;32.83
11971;BME280;6045;42.682;23.294;2023-08-30T08:41:35;93848.22;;;33.21;32.56
11971;BME280;6045;42.682;23.294;2023-08-30T08:44:05;93846.41;;;33.96;31.57
11971;BME280;6045;42.682;23.294;2023-08-30T08:46:32;93849.97;;;34.53;29.68
11971;BME280;6045;42.682;23.294;2023-08-30T08:49:05;93838.72;;;35.05;28.68
11971;BME280;6045;42.682;23.294;2023-08-30T08:51:37;93836.03;;;34.70;29.90
11971;BME280;6045;42.682;23.294;2023-08-30T08:54:05;93841.22;;;34.47;30.36
11971;BME280;6045;42.682;23.294;2023-08-30T08:56:35;93835.22;;;34.80;30.47
11971;BME280;6045;42.682;23.294;2023-08-30T08:59:02;93835.31;;;34.24;31.11
11971;BME280;6045;42.682;23.294;2023-08-30T09:01:29;93833.25;;;33.47;31.21
11971;BME280;6045;42.682;23.294;2023-08-30T09:03:59;93828.53;;;33.61;31.85
11971;BME280;6045;42.682;23.294;2023-08-30T09:06:26;93819.84;;;33.84;31.76
11971;BME280;6045;42.682;23.294;2023-08-30T09:08:56;93825.00;;;33.61;32.13
11971;BME280;6045;42.682;23.294;2023-08-30T09:11:23;93826.59;;;33.72;31.32
11971;BME280;6045;42.682;23.294;2023-08-30T09:13:50;93823.03;;;34.00;31.42
11971;BME280;6045;42.682;23.294;2023-08-30T09:16:16;93825.38;;;33.95;32.07
11971;BME280;6045;42.682;23.294;2023-08-30T09:18:43;93825.00;;;34.00;31.95
11971;BME280;6045;42.682;23.294;2023-08-30T09:21:11;93810.34;;;33.89;30.92
11971;BME280;6045;42.682;23.294;2023-08-30T09:23:38;93811.50;;;33.59;32.28
11971;BME280;6045;42.682;23.294;2023-08-30T09:26:06;93810.34;;;34.24;31.01
11971;BME280;6045;42.682;23.294;2023-08-30T09:28:41;93818.94;;;34.82;29.61
11971;BME280;6045;42.682;23.294;2023-08-30T09:31:16;93819.94;;;35.27;30.02
11971;BME280;6045;42.682;23.294;2023-08-30T09:33:44;93819.81;;;35.59;29.21
11971;BME280;6045;42.682;23.294;2023-08-30T09:36:13;93820.91;;;35.68;29.79
11971;BME280;6045;42.682;23.294;2023-08-30T09:38:40;93818.31;;;35.95;28.35
11971;BME280;6045;42.682;23.294;2023-08-30T09:41:09;93819.50;;;35.36;30.27
11971;BME280;6045;42.682;23.294;2023-08-30T09:43:42;93818.09;;;34.99;30.68
11971;BME280;6045;42.682;23.294;2023-08-30T09:46:09;93813.78;;;34.77;30.96
11971;BME280;6045;42.682;23.294;2023-08-30T09:48:37;93807.06;;;34.78;30.41
11971;BME280;6045;42.682;23.294;2023-08-30T09:51:08;93810.84;;;35.23;29.66
11971;BME280;6045;42.682;23.294;2023-08-30T09:53:41;93802.03;;;35.35;29.73
11971;BME280;6045;42.682;23.294;2023-08-30T09:56:12;93792.25;;;35.75;28.78
11971;BME280;6045;42.682;23.294;2023-08-30T09:58:41;93802.47;;;36.36;28.55
11971;BME280;6045;42.682;23.294;2023-08-30T10:01:09;93791.31;;;36.77;27.97
11971;BME280;6045;42.682;23.294;2023-08-30T10:03:36;93801.28;;;36.75;28.24
11971;BME280;6045;42.682;23.294;2023-08-30T10:06:03;93790.31;;;36.98;27.52
11971;BME280;6045;42.682;23.294;2023-08-30T10:08:32;93795.19;;;36.53;28.18
11971;BME280;6045;42.682;23.294;2023-08-30T10:11:02;93792.88;;;36.00;28.22
11971;BME280;6045;42.682;23.294;2023-08-30T10:13:31;93789.22;;;36.10;28.47
11971;BME280;6045;42.682;23.294;2023-08-30T10:16:01;93792.47;;;36.43;28.10
11971;BME280;6045;42.682;23.294;2023-08-30T10:18:32;93785.31;;;35.97;28.41
11971;BME280;6045;42.682;23.294;2023-08-30T10:21:02;93779.91;;;35.21;28.98
11971;BME280;6045;42.682;23.294;2023-08-30T10:23:34;93776.22;;;34.34;29.75
11971;BME280;6045;42.682;23.294;2023-08-30T10:26:03;93779.38;;;33.23;30.18
11971;BME280;6045;42.682;23.294;2023-08-30T10:28:32;93778.75;;;32.61;31.54
11971;BME280;6045;42.682;23.294;2023-08-30T10:31:01;93780.53;;;32.29;32.49
11971;BME280;6045;42.682;23.294;2023-08-30T10:33:28;93779.31;;;32.23;33.53
11971;BME280;6045;42.682;23.294;2023-08-30T10:36:04;93782.50;;;32.28;32.84
11971;BME280;6045;42.682;23.294;2023-08-30T10:38:32;93780.47;;;32.18;33.24
11971;BME280;6045;42.682;23.294;2023-08-30T10:41:09;93782.84;;;32.16;33.34
11971;BME280;6045;42.682;23.294;2023-08-30T10:43:37;93772.50;;;32.06;33.78
11971;BME280;6045;42.682;23.294;2023-08-30T10:46:05;93777.09;;;31.88;33.22
11971;BME280;6045;42.682;23.294;2023-08-30T10:48:37;93773.97;;;31.93;34.50
11971;BME280;6045;42.682;23.294;2023-08-30T10:51:05;93769.09;;;32.34;32.90
11971;BME280;6045;42.682;23.294;2023-08-30T10:53:33;93762.56;;;32.67;32.87
11971;BME280;6045;42.682;23.294;2023-08-30T10:56:03;93763.31;;;32.57;32.01
11971;BME280;6045;42.682;23.294;2023-08-30T10:58:40;93752.06;;;33.36;31.51
11971;BME280;6045;42.682;23.294;2023-08-30T11:01:09;93763.06;;;33.00;29.08
11971;BME280;6045;42.682;23.294;2023-08-30T11:03:37;93764.69;;;32.22;31.03
11971;BME280;6045;42.682;23.294;2023-08-30T11:06:04;93771.16;;;31.42;31.58
11971;BME280;6045;42.682;23.294;2023-08-30T11:08:31;93761.47;;;30.82;31.38
11971;BME280;6045;42.682;23.294;2023-08-30T11:11:03;93755.84;;;31.48;31.68
11971;BME280;6045;42.682;23.294;2023-08-30T11:13:30;93751.19;;;31.56;32.30
11971;BME280;6045;42.682;23.294;2023-08-30T11:16:01;93750.84;;;31.68;30.93
11971;BME280;6045;42.682;23.294;2023-08-30T11:18:29;93750.47;;;32.27;29.83
11971;BME280;6045;42.682;23.294;2023-08-30T11:21:00;93759.13;;;33.05;29.53
11971;BME280;6045;42.682;23.294;2023-08-30T11:23:26;93749.59;;;32.99;28.37
11971;BME280;6045;42.682;23.294;2023-08-30T11:25:53;93741.13;;;32.53;28.60
11971;BME280;6045;42.682;23.294;2023-08-30T11:28:23;93728.97;;;32.75;29.25
11971;BME280;6045;42.682;23.294;2023-08-30T11:30:50;93728.59;;;32.84;28.21
11971;BME280;6045;42.682;23.294;2023-08-30T11:33:20;93735.44;;;32.21;27.34
11971;BME280;6045;42.682;23.294;2023-08-30T11:35:49;93722.09;;;32.44;28.54
11971;BME280;6045;42.682;23.294;2023-08-30T11:38:18;93725.66;;;32.41;27.33
11971;BME280;6045;42.682;23.294;2023-08-30T11:40:49;93703.28;;;32.85;27.29
11971;BME280;6045;42.682;23.294;2023-08-30T11:43:16;93710.91;;;33.48;26.98
11971;BME280;6045;42.682;23.294;2023-08-30T11:45:42;93704.16;;;33.85;26.44
11971;BME280;6045;42.682;23.294;2023-08-30T11:48:09;93709.63;;;34.27;24.56
11971;BME280;6045;42.682;23.294;2023-08-30T11:50:38;93710.75;;;34.47;24.56
11971;BME280;6045;42.682;23.294;2023-08-30T11:53:05;93703.75;;;33.93;24.65
11971;BME280;6045;42.682;23.294;2023-08-30T11:55:32;93710.88;;;33.24;25.91
11971;BME280;6045;42.682;23.294;2023-08-30T11:57:59;93709.28;;;33.01;26.21
11971;BME280;6045;42.682;23.294;2023-08-30T12:00:26;93701.72;;;32.88;26.52
11971;BME280;6045;42.682;23.294;2023-08-30T12:02:53;93701.09;;;32.36;26.26
11971;BME280;6045;42.682;23.294;2023-08-30T12:05:20;93703.75;;;32.08;27.13
11971;BME280;6045;42.682;23.294;2023-08-30T12:07:48;93702.59;;;32.13;26.34
11971;BME280;6045;42.682;23.294;2023-08-30T12:10:18;93681.78;;;32.47;26.15
11971;BME280;6045;42.682;23.294;2023-08-30T12:12:45;93691.31;;;32.53;25.99
11971;BME280;6045;42.682;23.294;2023-08-30T12:15:13;93686.75;;;33.06;26.67
11971;BME280;6045;42.682;23.294;2023-08-30T12:17:40;93686.72;;;33.45;25.26
11971;BME280;6045;42.682;23.294;2023-08-30T12:20:14;93680.78;;;33.43;24.15
11971;BME280;6045;42.682;23.294;2023-08-30T12:22:42;93695.00;;;32.96;25.02
11971;BME280;6045;42.682;23.294;2023-08-30T12:25:20;93673.59;;;32.82;24.75
11971;BME280;6045;42.682;23.294;2023-08-30T12:27:48;93686.72;;;33.24;25.67
11971;BME280;6045;42.682;23.294;2023-08-30T12:30:16;93678.41;;;33.17;24.95
11971;BME280;6045;42.682;23.294;2023-08-30T12:32:43;93674.75;;;32.64;25.30
11971;BME280;6045;42.682;23.294;2023-08-30T12:35:10;93675.94;;;32.66;24.16
11971;BME280;6045;42.682;23.294;2023-08-30T12:37:37;93671.59;;;32.72;24.17
11971;BME280;6045;42.682;23.294;2023-08-30T12:40:05;93656.97;;;32.86;23.80
11971;BME280;6045;42.682;23.294;2023-08-30T12:42:37;93655.84;;;33.36;23.27
11971;BME280;6045;42.682;23.294;2023-08-30T12:45:05;93659.00;;;33.52;22.86
11971;BME280;6045;42.682;23.294;2023-08-30T12:47:33;93647.16;;;33.34;23.30
11971;BME280;6045;42.682;23.294;2023-08-30T12:49:59;93650.31;;;33.08;23.44
11971;BME280;6045;42.682;23.294;2023-08-30T12:52:26;93654.63;;;32.74;22.61
11971;BME280;6045;42.682;23.294;2023-08-30T12:54:53;93647.88;;;32.68;23.00
11971;BME280;6045;42.682;23.294;2023-08-30T12:57:20;93646.38;;;33.05;23.31
11971;BME280;6045;42.682;23.294;2023-08-30T12:59:48;93644.72;;;32.87;23.54
11971;BME280;6045;42.682;23.294;2023-08-30T13:02:15;93651.47;;;32.82;23.63
11971;BME280;6045;42.682;23.294;2023-08-30T13:04:42;93640.66;;;32.42;23.15